Time;durP1;ratioP1;P1;durP2;ratioP2;P2;SDS_P1;SDS_P2;PMS_P1;PMS_P2;Temp;Humidity;BMP_temperature;BMP_pressure;BME280_temperature;BME280_humidity;BME280_pressure;Samples;Min_cycle;Max_cycle;Signal;HPM_P1;HPM_P2
2021/10/20 00:01:46;;;;;;;19.75;3.67;;;;;;;9.19;100.00;99616.44;4897143;29;20050;-91
2021/10/20 00:04:12;;;;;;;11.40;2.85;;;;;;;9.19;100.00;99616.44;4886155;29;20039;-90
2021/10/20 00:06:38;;;;;;;23.65;3.85;;;;;;;9.18;100.00;99620.16;4917099;29;20158;-92
2021/10/20 00:09:05;;;;;;;19.15;4.43;;;;;;;9.23;100.00;99612.38;4912404;29;20035;-91
2021/10/20 00:11:31;;;;;;;20.80;3.00;;;;;;;9.24;100.00;99614.00;4899533;29;20045;-90
2021/10/20 00:13:58;;;;;;;14.32;2.85;;;;;;;9.15;100.00;99591.03;4900639;29;20478;-91
2021/10/20 00:16:24;;;;;;;27.80;3.03;;;;;;;9.14;100.00;99586.69;4887043;29;20389;-91
2021/10/20 00:19:14;;;;;;;14.20;2.58;;;;;;;9.06;100.00;99578.81;4901807;29;20035;-91
2021/10/20 00:21:53;;;;;;;18.20;3.17;;;;;;;9.08;100.00;99581.31;4886308;29;20027;-91
2021/10/20 00:24:19;;;;;;;16.35;2.67;;;;;;;9.15;100.00;99582.97;4898403;29;20051;-89
2021/10/20 00:26:44;;;;;;;19.63;3.05;;;;;;;9.21;100.00;99603.69;4903275;29;20039;-92
2021/10/20 00:29:14;;;;;;;19.48;2.85;;;;;;;9.13;100.00;99597.59;4898572;29;20051;-91
2021/10/20 00:31:40;;;;;;;19.80;2.70;;;;;;;8.86;100.00;99551.00;4883479;29;20430;-91
2021/10/20 00:34:06;;;;;;;18.67;2.50;;;;;;;8.97;100.00;99571.91;4882917;29;20082;-91
2021/10/20 00:36:31;;;;;;;21.83;5.07;;;;;;;8.94;100.00;99577.66;4882053;29;20122;-91
2021/10/20 00:38:57;;;;;;;30.63;4.88;;;;;;;8.85;100.00;99570.81;4869369;29;20044;-91
2021/10/20 00:41:28;;;;;;;30.67;10.02;;;;;;;8.76;100.00;99546.81;4899784;29;20442;-91
2021/10/20 00:43:54;;;;;;;54.60;18.35;;;;;;;8.94;100.00;99566.94;4901268;29;20481;-90
2021/10/20 00:46:30;;;;;;;49.88;14.65;;;;;;;8.90;100.00;99541.56;4884371;29;20032;-91
2021/10/20 00:48:57;;;;;;;50.90;14.50;;;;;;;8.88;100.00;99522.16;4893377;29;20426;-91
2021/10/20 00:51:27;;;;;;;35.63;12.20;;;;;;;9.00;100.00;99534.84;4900746;29;20126;-90
2021/10/20 00:53:58;;;;;;;43.33;15.15;;;;;;;9.00;100.00;99539.38;4898992;29;20044;-91
2021/10/20 00:56:28;;;;;;;51.42;16.08;;;;;;;8.84;100.00;99531.59;4890780;29;20067;-91
2021/10/20 00:58:54;;;;;;;46.88;16.75;;;;;;;8.90;100.00;99552.28;4900187;29;20040;-91
2021/10/20 01:01:21;;;;;;;39.95;12.98;;;;;;;8.98;100.00;99560.19;4902195;29;20027;-91
2021/10/20 01:03:47;;;;;;;30.40;7.88;;;;;;;8.98;100.00;99554.81;4881762;29;20143;-91
2021/10/20 01:06:17;;;;;;;30.02;6.50;;;;;;;8.84;100.00;99537.81;4913101;29;20036;-91
2021/10/20 01:08:44;;;;;;;35.42;8.07;;;;;;;8.96;100.00;99546.13;4899854;29;20064;-92
2021/10/20 01:11:10;;;;;;;30.65;5.32;;;;;;;8.80;100.00;99507.88;4900618;29;20039;-90
2021/10/20 01:13:36;;;;;;;24.77;6.15;;;;;;;8.81;100.00;99514.06;4902420;29;20495;-91
2021/10/20 01:16:02;;;;;;;18.83;5.40;;;;;;;8.77;100.00;99513.63;4904897;29;20138;-91
2021/10/20 01:18:28;;;;;;;19.73;4.72;;;;;;;8.73;100.00;99504.34;4905435;29;20131;-91
2021/10/20 01:20:57;;;;;;;19.88;4.97;;;;;;;8.79;100.00;99498.19;4905671;29;20690;-91
2021/10/20 01:23:23;;;;;;;14.43;5.00;;;;;;;8.81;100.00;99506.00;4904785;29;20027;-91
2021/10/20 01:25:49;;;;;;;21.73;5.43;;;;;;;8.68;100.00;99488.00;4904244;29;20537;-90
2021/10/20 01:28:17;;;;;;;17.67;3.95;;;;;;;8.59;100.00;99476.59;4903833;29;20095;-91
2021/10/20 01:30:43;;;;;;;16.50;3.72;;;;;;;8.69;100.00;99513.78;4903799;29;20040;-90
2021/10/20 01:33:10;;;;;;;17.85;3.60;;;;;;;8.61;100.00;99511.22;4903030;29;20508;-91
2021/10/20 01:35:36;;;;;;;13.90;3.47;;;;;;;8.63;100.00;99514.56;4886280;29;20082;-90
2021/10/20 01:38:02;;;;;;;15.52;3.40;;;;;;;8.47;100.00;99474.66;4901280;29;20401;-90
2021/10/20 01:40:28;;;;;;;12.35;3.13;;;;;;;8.63;100.00;99490.44;4903836;29;20043;-91
2021/10/20 01:42:54;;;;;;;14.25;3.30;;;;;;;8.46;100.00;99462.25;4895509;29;20040;-91
2021/10/20 01:45:20;;;;;;;13.55;2.90;;;;;;;8.59;100.00;99476.59;4895737;29;20035;-91
2021/10/20 01:47:45;;;;;;;14.23;2.60;;;;;;;8.49;100.00;99454.66;4885799;29;20711;-91
2021/10/20 01:50:14;;;;;;;13.45;2.75;;;;;;;8.56;100.00;99460.91;4902719;29;20119;-91
2021/10/20 01:52:40;;;;;;;14.80;2.97;;;;;;;8.58;100.00;99463.41;4887296;29;20046;-91
2021/10/20 01:55:07;;;;;;;14.95;2.67;;;;;;;8.54;100.00;99456.75;4903480;29;20039;-92
2021/10/20 01:57:33;;;;;;;12.80;2.88;;;;;;;8.48;100.00;99441.47;4913448;29;20047;-91
2021/10/20 01:59:59;;;;;;;14.13;2.35;;;;;;;8.30;100.00;99423.97;4886028;29;20040;-92
2021/10/20 02:02:25;;;;;;;11.63;2.45;;;;;;;8.26;100.00;99430.75;4894500;29;20208;-92
2021/10/20 02:04:51;;;;;;;16.33;2.90;;;;;;;8.29;100.00;99427.69;4900114;29;20485;-91
2021/10/20 02:07:17;;;;;;;17.10;3.03;;;;;;;8.31;100.00;99430.19;4902430;29;20450;-91
2021/10/20 02:09:43;;;;;;;7.63;2.35;;;;;;;8.31;100.00;99431.00;4902905;29;20390;-91
2021/10/20 02:12:09;;;;;;;10.25;2.92;;;;;;;8.30;100.00;99433.88;4884937;29;20482;-90
2021/10/20 02:14:35;;;;;;;18.08;2.65;;;;;;;8.36;100.00;99427.72;4886024;29;20035;-90
2021/10/20 02:17:01;;;;;;;11.02;2.38;;;;;;;8.37;100.00;99421.38;4918134;29;20039;-90
2021/10/20 02:19:27;;;;;;;17.15;2.25;;;;;;;8.58;100.00;99450.00;4889276;29;20485;-91
2021/10/20 02:21:58;;;;;;;19.75;3.40;;;;;;;8.45;100.00;99410.53;4887673;29;20039;-90
2021/10/20 02:24:24;;;;;;;10.23;3.22;;;;;;;8.63;100.00;99436.84;4884857;29;20044;-90
2021/10/20 02:26:49;;;;;;;17.90;3.33;;;;;;;8.60;100.00;99423.84;4885653;29;20036;-91
2021/10/20 02:29:15;;;;;;;11.85;2.22;;;;;;;8.69;100.00;99436.06;4886530;29;20050;-91
2021/10/20 02:31:46;;;;;;;15.68;3.22;;;;;;;8.61;100.00;99440.75;4890747;29;20046;-92
2021/10/20 02:34:16;;;;;;;8.75;2.50;;;;;;;8.52;100.00;99408.75;4902183;29;20453;-93
2021/10/20 02:36:42;;;;;;;13.65;3.17;;;;;;;8.71;100.00;99436.69;4899281;29;21932;-90
2021/10/20 02:39:08;;;;;;;22.20;2.95;;;;;;;8.59;100.00;99412.28;4901537;29;20038;-92
2021/10/20 02:41:35;;;;;;;20.50;3.88;;;;;;;8.68;100.00;99415.66;4903076;29;20102;-91
2021/10/20 02:44:01;;;;;;;15.77;2.40;;;;;;;8.72;100.00;99411.53;4903826;29;20040;-91
2021/10/20 02:46:28;;;;;;;14.80;2.70;;;;;;;8.81;100.00;99425.59;4912757;29;20126;-92
2021/10/20 02:48:54;;;;;;;17.55;2.40;;;;;;;8.74;100.00;99414.03;4910801;29;20036;-92
2021/10/20 02:51:19;;;;;;;13.50;3.00;;;;;;;8.71;100.00;99390.31;4886547;29;20036;-92
2021/10/20 02:53:45;;;;;;;12.70;3.42;;;;;;;8.87;100.00;99406.06;4888150;29;20122;-91
2021/10/20 02:56:17;;;;;;;20.77;3.15;;;;;;;8.78;100.00;99381.25;4907343;29;20115;-91
2021/10/20 02:58:43;;;;;;;23.65;3.05;;;;;;;8.86;100.00;99392.84;4887589;29;20127;-90
2021/10/20 03:01:09;;;;;;;10.68;2.05;;;;;;;8.81;100.00;99388.06;4898778;29;20580;-91
2021/10/20 03:03:34;;;;;;;11.82;2.15;;;;;;;8.75;100.00;99376.31;4888910;29;20027;-91
2021/10/20 03:06:00;;;;;;;8.73;2.15;;;;;;;8.77;100.00;99370.75;4902010;29;20143;-91
2021/10/20 03:08:26;;;;;;;13.57;2.75;;;;;;;8.74;100.00;99361.25;4886104;29;20477;-91
2021/10/20 03:10:52;;;;;;;15.70;2.53;;;;;;;8.88;100.00;99374.72;4899124;29;20035;-92
2021/10/20 03:13:17;;;;;;;17.15;3.20;;;;;;;8.80;100.00;99344.38;4887843;29;20462;-91
2021/10/20 03:15:43;;;;;;;10.35;2.30;;;;;;;8.81;100.00;99329.13;4884540;29;20466;-91
2021/10/20 03:18:09;;;;;;;12.88;2.22;;;;;;;8.85;100.00;99337.59;4903121;29;20039;-91
2021/10/20 03:20:37;;;;;;;12.75;2.97;;;;;;;8.82;100.00;99329.97;4902309;29;20083;-91
2021/10/20 03:23:03;;;;;;;15.32;2.53;;;;;;;8.81;100.00;99323.75;4910507;29;20031;-92
2021/10/20 03:25:29;;;;;;;18.83;2.67;;;;;;;8.79;100.00;99318.63;4917176;29;20047;-92
2021/10/20 03:27:54;;;;;;;14.75;3.47;;;;;;;8.90;100.00;99327.94;4902353;29;21114;-92
2021/10/20 03:30:22;;;;;;;19.15;3.08;;;;;;;8.90;100.00;99311.03;4913984;29;20047;-92
2021/10/20 03:32:48;;;;;;;8.52;1.85;;;;;;;8.88;100.00;99308.53;4911742;29;20098;-91
2021/10/20 03:35:14;;;;;;;21.13;2.72;;;;;;;9.00;100.00;99327.56;4899444;29;20043;-93
2021/10/20 03:37:41;;;;;;;14.80;3.55;;;;;;;8.85;100.00;99305.44;4901285;29;20032;-91
2021/10/20 03:40:07;;;;;;;17.13;3.38;;;;;;;8.90;100.00;99305.66;4899469;29;20050;-92
2021/10/20 03:42:35;;;;;;;20.13;2.60;;;;;;;8.87;100.00;99306.06;4888164;29;20401;-92
2021/10/20 03:45:03;;;;;;;22.38;2.50;;;;;;;8.82;100.00;99297.81;4885842;29;20058;-91
2021/10/20 03:47:28;;;;;;;20.13;2.95;;;;;;;8.95;100.00;99317.44;4901404;29;20035;-92
2021/10/20 03:49:54;;;;;;;14.70;2.55;;;;;;;8.83;100.00;99294.09;4883184;29;20439;-92
2021/10/20 03:52:20;;;;;;;16.40;2.53;;;;;;;8.96;100.00;99311.03;4899922;29;20031;-91
2021/10/20 03:54:46;;;;;;;17.60;2.78;;;;;;;8.91;100.00;99297.41;4886431;29;20036;-91
2021/10/20 03:57:12;;;;;;;14.23;2.55;;;;;;;8.88;100.00;99288.94;4899439;29;20079;-91
2021/10/20 03:59:38;;;;;;;16.80;2.75;;;;;;;9.00;100.00;99304.25;4885795;29;20389;-91
2021/10/20 04:02:04;;;;;;;12.32;2.25;;;;;;;9.01;100.00;99297.03;4896752;29;20039;-92
2021/10/20 04:04:29;;;;;;;12.38;3.22;;;;;;;8.91;100.00;99291.22;4915789;29;20086;-92
2021/10/20 04:06:55;;;;;;;16.20;3.28;;;;;;;8.97;100.00;99298.44;4900306;29;20081;-91
2021/10/20 04:09:21;;;;;;;18.63;2.70;;;;;;;8.87;100.00;99279.28;4900207;29;20063;-91
2021/10/20 04:11:47;;;;;;;19.10;2.55;;;;;;;8.87;100.00;99279.28;4885377;29;20035;-91
2021/10/20 04:14:12;;;;;;;15.05;2.90;;;;;;;8.85;100.00;99275.97;4886649;29;20549;-91
2021/10/20 04:16:38;;;;;;;15.45;3.05;;;;;;;8.74;100.00;99259.44;4885310;29;20418;-91
2021/10/20 04:19:04;;;;;;;11.45;2.60;;;;;;;8.94;100.00;99290.81;4884587;29;20032;-90
2021/10/20 04:21:30;;;;;;;14.15;2.97;;;;;;;8.89;100.00;99282.56;4900395;29;20204;-92
2021/10/20 04:23:56;;;;;;;17.45;2.90;;;;;;;8.97;100.00;99282.38;4895411;29;20135;-92
2021/10/20 04:26:21;;;;;;;16.77;3.08;;;;;;;8.90;100.00;99262.78;4882954;29;20077;-91
2021/10/20 04:28:47;;;;;;;14.82;2.60;;;;;;;9.03;100.00;99278.91;4901885;29;20046;-90
2021/10/20 04:31:16;;;;;;;18.10;3.22;;;;;;;8.93;100.00;99260.50;4897782;29;20071;-91
2021/10/20 04:33:42;;;;;;;15.93;2.88;;;;;;;8.93;100.00;99262.38;4884153;29;20054;-92
2021/10/20 04:36:10;;;;;;;18.77;3.17;;;;;;;9.00;100.00;99279.31;4898736;29;20047;-92
2021/10/20 04:38:36;;;;;;;18.50;2.63;;;;;;;8.85;100.00;99254.50;4900192;29;20060;-92
2021/10/20 04:41:03;;;;;;;17.35;2.53;;;;;;;8.90;100.00;99257.41;4915589;29;20071;-92
2021/10/20 04:43:29;;;;;;;11.75;2.20;;;;;;;9.00;100.00;99268.59;4885645;29;20062;-93
2021/10/20 04:45:55;;;;;;;17.92;2.78;;;;;;;8.92;100.00;99258.06;4888571;29;20046;-93
2021/10/20 04:48:22;;;;;;;15.35;2.97;;;;;;;9.06;100.00;99283.84;4896426;29;20039;-93
2021/10/20 04:50:48;;;;;;;20.48;3.25;;;;;;;8.95;100.00;99271.03;4911346;29;20038;-92
2021/10/20 04:53:14;;;;;;;12.65;2.25;;;;;;;8.88;100.00;99254.94;4892166;29;20032;-93
2021/10/20 04:59:15;;;;;;;15.07;2.00;;;;;;;8.84;100.00;99269.78;4934010;29;20528;-93
2021/10/20 05:01:40;;;;;;;9.95;2.08;;;;;;;8.66;100.00;99232.81;4899937;29;20043;-94
2021/10/20 05:04:06;;;;;;;12.30;1.92;;;;;;;8.74;100.00;99240.66;4916608;29;20101;-93
2021/10/20 05:06:32;;;;;;;15.60;2.40;;;;;;;8.77;100.00;99248.28;4895679;29;20043;-89
2021/10/20 05:08:58;;;;;;;9.63;2.47;;;;;;;8.86;100.00;99259.66;4878339;29;20043;-90
2021/10/20 05:11:26;;;;;;;13.55;2.15;;;;;;;8.76;100.00;99241.28;4911054;29;21037;-92
2021/10/20 05:13:51;;;;;;;7.78;1.60;;;;;;;8.78;100.00;99251.78;4896202;29;20111;-91
2021/10/20 05:16:17;;;;;;;10.00;1.90;;;;;;;8.78;100.00;99243.75;4885066;29;20040;-92
2021/10/20 05:18:43;;;;;;;7.45;1.48;;;;;;;8.75;100.00;99236.94;4883541;29;20070;-92
2021/10/20 05:21:09;;;;;;;9.13;2.47;;;;;;;8.87;100.00;99257.81;4899940;29;20382;-91
2021/10/20 05:23:35;;;;;;;8.63;2.08;;;;;;;8.82;100.00;99244.19;4885158;29;20036;-92
2021/10/20 05:26:00;;;;;;;7.75;2.10;;;;;;;8.78;100.00;99230.34;4885043;29;20044;-91
2021/10/20 05:28:45;;;;;;;12.35;1.98;;;;;;;8.66;100.00;99207.88;4883206;29;20039;-91
2021/10/20 05:31:13;;;;;;;4.05;1.15;;;;;;;8.79;100.00;99232.84;4899019;29;20036;-92
2021/10/20 05:33:38;;;;;;;8.50;1.65;;;;;;;8.65;100.00;99217.75;4894676;29;20063;-90
2021/10/20 05:36:05;;;;;;;13.15;1.95;;;;;;;8.73;100.00;99219.41;4894096;29;20063;-90
2021/10/20 05:38:30;;;;;;;4.53;1.17;;;;;;;8.70;100.00;99214.47;4912730;29;20032;-90
2021/10/20 05:40:56;;;;;;;4.70;1.13;;;;;;;8.67;100.00;99202.28;4884556;29;20095;-88
2021/10/20 05:43:22;;;;;;;15.65;2.38;;;;;;;8.48;100.00;99176.28;4896687;29;20389;-89
2021/10/20 05:45:48;;;;;;;1.25;0.93;;;;;;;8.55;100.00;99193.22;4884381;29;20062;-88
2021/10/20 05:48:15;;;;;;;18.67;2.75;;;;;;;8.41;100.00;99172.75;4914583;29;20051;-90
2021/10/20 05:50:42;;;;;;;10.77;2.53;;;;;;;8.52;100.00;99190.91;4903120;29;20071;-91
2021/10/20 05:53:08;;;;;;;0.63;0.63;;;;;;;8.57;100.00;99199.16;4898977;29;20040;-91
2021/10/20 05:55:34;;;;;;;3.15;0.90;;;;;;;8.55;100.00;99201.25;4899214;29;20123;-90
2021/10/20 05:57:59;;;;;;;3.50;0.98;;;;;;;8.51;100.00;99199.97;4899730;29;20035;-89
2021/10/20 06:00:25;;;;;;;3.53;1.30;;;;;;;8.54;100.00;99204.94;4902853;29;20429;-91
2021/10/20 06:02:51;;;;;;;0.77;0.77;;;;;;;8.46;100.00;99191.72;4884174;29;20260;-88
2021/10/20 06:05:16;;;;;;;11.52;1.17;;;;;;;8.42;100.00;99190.47;4887398;29;20062;-91
2021/10/20 06:07:44;;;;;;;1.42;0.80;;;;;;;8.44;100.00;99193.75;4901609;29;20482;-91
2021/10/20 06:10:11;;;;;;;3.45;1.23;;;;;;;8.40;100.00;99197.88;4902660;29;20127;-89
2021/10/20 06:12:36;;;;;;;17.63;1.52;;;;;;;8.32;100.00;99188.94;4900813;29;20098;-89
2021/10/20 06:15:02;;;;;;;14.25;1.20;;;;;;;8.33;100.00;99189.78;4902555;29;20032;-88
2021/10/20 06:17:28;;;;;;;16.10;1.85;;;;;;;8.38;100.00;99196.19;4902556;29;20479;-92
2021/10/20 06:19:54;;;;;;;0.63;0.63;;;;;;;8.23;100.00;99192.00;4916030;29;20138;-92
2021/10/20 06:22:20;;;;;;;4.25;2.30;;;;;;;8.30;100.00;99200.88;4886526;29;20401;-88
2021/10/20 06:24:46;;;;;;;8.82;1.50;;;;;;;8.18;100.00;99183.72;4898178;29;20032;-91
2021/10/20 06:27:11;;;;;;;13.15;1.52;;;;;;;8.16;100.00;99178.59;4903054;29;20397;-88
2021/10/20 06:29:37;;;;;;;8.35;1.25;;;;;;;8.25;100.00;99196.13;4899547;29;20132;-92
2021/10/20 06:32:03;;;;;;;11.68;1.55;;;;;;;8.25;100.00;99193.44;4886347;29;20059;-92
2021/10/20 06:34:29;;;;;;;4.57;0.82;;;;;;;8.23;100.00;99160.72;4899410;29;20039;-91
2021/10/20 06:36:54;;;;;;;2.88;0.90;;;;;;;8.30;100.00;99168.75;4902845;29;20044;-90
2021/10/20 06:39:24;;;;;;;0.50;0.50;;;;;;;8.24;100.00;99150.81;4891371;29;20047;-94
2021/10/20 06:41:50;;;;;;;1.10;1.00;;;;;;;8.16;100.00;99143.78;4891023;29;20453;-92
2021/10/20 06:44:17;;;;;;;7.88;1.15;;;;;;;8.23;100.00;99163.38;4919007;29;20397;-90
2021/10/20 06:46:43;;;;;;;2.10;0.88;;;;;;;8.13;100.00;99161.06;4906352;29;20032;-88
2021/10/20 06:49:09;;;;;;;1.83;1.02;;;;;;;8.13;100.00;99170.97;4908484;29;20044;-91
2021/10/20 06:51:35;;;;;;;2.92;1.17;;;;;;;8.14;100.00;99180.63;4905447;29;20036;-91
2021/10/20 06:54:00;;;;;;;5.32;1.30;;;;;;;8.02;100.00;99168.81;4900435;29;20036;-91
2021/10/20 06:56:26;;;;;;;14.70;1.27;;;;;;;8.09;100.00;99185.75;4903056;29;20122;-91
2021/10/20 06:58:52;;;;;;;25.15;2.28;;;;;;;8.12;100.00;99196.91;4901254;29;20295;-92
2021/10/20 07:01:18;;;;;;;7.90;1.88;;;;;;;8.15;100.00;99201.03;4918166;29;20054;-90
2021/10/20 07:03:44;;;;;;;2.25;1.40;;;;;;;8.15;100.00;99214.44;4903070;29;20416;-92
2021/10/20 07:06:12;;;;;;;3.67;1.48;;;;;;;8.12;100.00;99215.66;4927275;29;20039;-89
2021/10/20 07:08:38;;;;;;;18.08;2.03;;;;;;;8.07;100.00;99204.69;4901379;29;20477;-91
2021/10/20 07:11:04;;;;;;;3.08;1.15;;;;;;;8.01;100.00;99191.28;4877882;29;20043;-91
2021/10/20 07:13:30;;;;;;;8.88;1.33;;;;;;;8.05;100.00;99200.56;4892448;29;20217;-92
2021/10/20 07:15:58;;;;;;;7.82;1.52;;;;;;;7.99;100.00;99191.47;4889735;29;20099;-93
2021/10/20 07:18:24;;;;;;;12.10;1.42;;;;;;;8.16;100.00;99218.75;4897831;29;20036;-93
2021/10/20 07:20:50;;;;;;;2.35;1.20;;;;;;;8.07;100.00;99199.34;4883747;29;20043;-94
2021/10/20 07:23:16;;;;;;;21.52;7.50;;;;;;;8.15;100.00;99211.75;4885656;29;20039;-90
2021/10/20 07:25:42;;;;;;;26.77;8.48;;;;;;;8.07;100.00;99207.38;4906724;29;20070;-92
2021/10/20 07:28:09;;;;;;;10.52;4.72;;;;;;;8.24;100.00;99228.47;4901466;29;20406;-92
2021/10/20 07:30:37;;;;;;;13.82;4.57;;;;;;;8.19;100.00;99218.34;4890587;29;20150;-91
2021/10/20 07:33:03;;;;;;;8.00;3.50;;;;;;;8.28;100.00;99233.25;4901905;29;20035;-92
2021/10/20 07:35:28;;;;;;;10.13;4.40;;;;;;;8.18;100.00;99197.97;4918773;29;20505;-92
2021/10/20 07:37:54;;;;;;;17.17;4.97;;;;;;;8.37;100.00;99234.72;4901478;29;20051;-91
2021/10/20 07:40:20;;;;;;;20.70;6.75;;;;;;;8.26;100.00;99205.81;4910462;29;20045;-92
2021/10/20 07:42:46;;;;;;;16.92;5.78;;;;;;;8.27;100.00;99203.97;4902842;29;20042;-92
2021/10/20 07:45:15;;;;;;;7.18;3.70;;;;;;;8.33;100.00;99208.53;4910152;29;20651;-91
2021/10/20 07:47:42;;;;;;;14.85;2.38;;;;;;;8.37;100.00;99213.28;4893610;29;20138;-92
2021/10/20 07:50:08;;;;;;;7.88;2.25;;;;;;;8.31;100.00;99216.78;4926073;29;20031;-94
2021/10/20 07:52:34;;;;;;;7.50;2.67;;;;;;;8.29;100.00;99213.47;4902065;29;20371;-90
2021/10/20 07:55:01;;;;;;;7.20;2.08;;;;;;;8.32;100.00;99222.94;4888828;29;20106;-92
2021/10/20 07:57:29;;;;;;;9.10;3.08;;;;;;;8.26;100.00;99213.03;4890282;29;20039;-93
2021/10/20 07:59:55;;;;;;;8.20;2.97;;;;;;;8.28;100.00;99225.22;4902885;29;20059;-93
2021/10/20 08:02:21;;;;;;;13.43;2.70;;;;;;;8.29;100.00;99234.88;4885751;29;20439;-93
2021/10/20 08:04:53;;;;;;;10.77;2.28;;;;;;;8.20;100.00;99211.94;4898602;29;20066;-93
2021/10/20 08:07:43;;;;;;;10.90;3.92;;;;;;;8.37;100.00;99245.41;4902267;29;20056;-93
2021/10/20 08:10:10;;;;;;;7.40;1.98;;;;;;;8.25;100.00;99228.25;4915889;29;20130;-89
2021/10/20 08:12:35;;;;;;;6.47;2.75;;;;;;;8.44;100.00;99252.69;4886350;29;20477;-91
2021/10/20 08:15:02;;;;;;;8.10;3.00;;;;;;;8.41;100.00;99237.84;4899551;29;20058;-92
2021/10/20 08:17:28;;;;;;;4.47;1.85;;;;;;;8.52;100.00;99248.00;4902275;29;20042;-91
2021/10/20 08:19:54;;;;;;;8.93;2.47;;;;;;;8.50;100.00;99243.88;4901574;29;20126;-94
2021/10/20 08:22:19;;;;;;;7.65;2.80;;;;;;;8.57;100.00;99252.75;4881276;29;20497;-90
2021/10/20 08:24:45;;;;;;;31.10;5.75;;;;;;;8.62;100.00;99260.19;4887177;29;20055;-93
2021/10/20 08:27:11;;;;;;;22.20;2.63;;;;;;;8.51;100.00;99257.06;4890725;29;20043;-91
2021/10/20 08:29:37;;;;;;;14.48;2.90;;;;;;;8.55;100.00;99274.41;4886231;29;20095;-93
2021/10/20 08:32:05;;;;;;;40.75;5.22;;;;;;;8.42;100.00;99260.13;4899809;29;20516;-92
2021/10/20 08:34:31;;;;;;;20.45;2.92;;;;;;;8.46;100.00;99269.41;4915779;29;20118;-90
2021/10/20 08:36:57;;;;;;;118.10;12.68;;;;;;;8.49;100.00;99277.84;4900390;29;20430;-91
2021/10/20 08:39:23;;;;;;;10.50;2.97;;;;;;;8.55;100.00;99281.63;4908389;29;20457;-88
2021/10/20 08:41:49;;;;;;;11.68;2.20;;;;;;;8.47;100.00;99266.53;4900831;29;20040;-93
2021/10/20 08:44:15;;;;;;;11.93;2.15;;;;;;;8.53;100.00;99259.53;4899563;29;20050;-91
2021/10/20 08:46:41;;;;;;;3.13;1.00;;;;;;;8.72;100.00;99277.53;4881539;29;20043;-92
2021/10/20 08:49:09;;;;;;;8.88;2.03;;;;;;;8.84;100.00;99279.66;4899920;29;20035;-91
2021/10/20 08:51:35;;;;;;;3.47;1.65;;;;;;;8.83;100.00;99259.25;4896140;29;20035;-91
2021/10/20 08:54:01;;;;;;;6.88;1.10;;;;;;;9.13;100.00;99281.19;4914450;29;20039;-92
2021/10/20 08:56:27;;;;;;;15.20;2.08;;;;;;;9.28;100.00;99275.66;4892457;29;20093;-92
2021/10/20 08:58:53;;;;;;;9.68;2.92;;;;;;;9.45;100.00;99283.13;4893360;29;20351;-90
2021/10/20 09:01:19;;;;;;;13.32;3.42;;;;;;;9.68;100.00;99276.50;4889124;29;20039;-88
2021/10/20 09:03:45;;;;;;;9.68;1.48;;;;;;;9.74;100.00;99266.81;4888481;29;20126;-94
2021/10/20 09:06:11;;;;;;;1.45;1.00;;;;;;;9.84;100.00;99264.53;4896518;29;20044;-93
2021/10/20 09:08:44;;;;;;;11.07;2.25;;;;;;;9.94;100.00;99240.78;4886507;29;20089;-93
2021/10/20 09:11:35;;;;;;;6.82;1.70;;;;;;;10.12;100.00;99257.06;4906018;29;20032;-91
2021/10/20 09:14:04;;;;;;;1.30;0.95;;;;;;;10.08;100.00;99245.09;4903585;29;20035;-92
2021/10/20 09:16:30;;;;;;;11.32;1.10;;;;;;;10.12;100.00;99240.94;4887292;29;20430;-91
2021/10/20 09:18:57;;;;;;;5.10;1.80;;;;;;;10.28;100.00;99244.25;4912511;29;20043;-91
2021/10/20 09:21:24;;;;;;;9.00;2.22;;;;;;;10.40;100.00;99229.13;4885701;29;20044;-93
2021/10/20 09:23:50;;;;;;;11.43;2.10;;;;;;;10.49;100.00;99235.09;4917146;29;20032;-92
2021/10/20 09:26:16;;;;;;;19.02;1.60;;;;;;;10.39;100.00;99222.09;4884831;29;20465;-93
2021/10/20 09:28:42;;;;;;;9.88;1.92;;;;;;;10.39;100.00;99230.16;4892076;29;20131;-93
2021/10/20 09:31:08;;;;;;;5.90;2.00;;;;;;;10.16;100.00;99222.56;4919629;29;20047;-91
2021/10/20 09:33:36;;;;;;;12.32;2.15;;;;;;;9.93;100.00;99225.72;4920870;29;20105;-92
2021/10/20 09:36:03;;;;;;;4.82;1.55;;;;;;;9.84;100.00;99229.63;4904653;29;20095;-91
2021/10/20 09:38:33;;;;;;;3.72;0.77;;;;;;;9.76;100.00;99219.09;4915921;29;20163;-93
2021/10/20 09:41:06;;;;;;;0.73;0.70;;;;;;;9.51;100.00;99190.25;4886001;29;20075;-92
2021/10/20 09:43:33;;;;;;;7.10;0.80;;;;;;;9.66;100.00;99219.56;4912544;29;20058;-91
2021/10/20 09:46:01;;;;;;;12.23;1.85;;;;;;;9.59;100.00;99208.81;4888799;29;20127;-92
2021/10/20 09:48:27;;;;;;;0.88;0.77;;;;;;;9.71;100.00;99243.06;4892312;29;20039;-90
2021/10/20 09:51:03;;;;;;;11.18;2.17;;;;;;;9.85;100.00;99263.50;4904847;29;20032;-92
2021/10/20 09:53:31;;;;;;;19.38;1.75;;;;;;;10.00;100.00;99261.44;4890395;29;20036;-91
2021/10/20 09:56:03;;;;;;;11.40;1.70;;;;;;;9.97;100.00;99244.91;4917703;29;20027;-93
2021/10/20 09:58:32;;;;;;;5.70;1.02;;;;;;;10.06;100.00;99255.22;4890726;29;20079;-92
2021/10/20 10:00:59;;;;;;;2.28;0.77;;;;;;;10.06;100.00;99255.22;4894707;29;20036;-92
2021/10/20 10:03:25;;;;;;;1.73;1.35;;;;;;;10.28;100.00;99271.94;4888216;29;20056;-87
2021/10/20 10:05:52;;;;;;;4.40;1.52;;;;;;;10.38;100.00;99266.13;4888340;29;20081;-86
2021/10/20 10:08:18;;;;;;;2.83;1.63;;;;;;;10.25;100.00;99250.84;4887718;29;20032;-88
2021/10/20 10:10:43;;;;;;;8.43;2.38;;;;;;;10.45;100.00;99271.47;4918860;29;20042;-87
2021/10/20 10:13:16;;;;;;;1.45;1.35;;;;;;;10.59;100.00;99277.66;4888234;29;20063;-87
2021/10/20 10:15:42;;;;;;;1.20;1.05;;;;;;;10.67;100.00;99278.25;4909349;29;20319;-87
2021/10/20 10:18:10;;;;;;;2.17;1.40;;;;;;;10.86;100.00;99292.63;4922709;29;20059;-86
2021/10/20 10:20:41;;;;;;;3.90;1.30;;;;;;;10.93;100.00;99284.56;4914448;29;20397;-87
2021/10/20 10:23:17;;;;;;;6.82;1.73;;;;;;;11.04;100.00;99275.78;4905731;29;20044;-88
2021/10/20 10:25:43;;;;;;;0.50;0.50;;;;;;;11.15;100.00;99287.72;4909571;29;20382;-89
2021/10/20 10:28:18;;;;;;;12.23;1.13;;;;;;;11.03;100.00;99257.16;4910241;29;20058;-88
2021/10/20 10:30:50;;;;;;;1.98;1.25;;;;;;;11.22;100.00;99272.38;4917767;29;20039;-88
2021/10/20 10:33:25;;;;;;;1.25;1.02;;;;;;;11.20;100.00;99251.06;4905459;29;20074;-89
2021/10/20 10:36:14;;;;;;;4.13;1.25;;;;;;;11.31;100.00;99262.19;4918380;29;20481;-89
2021/10/20 10:38:49;;;;;;;5.47;1.90;;;;;;;11.00;100.00;99232.34;4910950;29;20039;-89
2021/10/20 10:41:33;;;;;;;11.32;1.92;;;;;;;11.00;100.00;99259.25;4903861;29;20040;-87
2021/10/20 10:44:08;;;;;;;13.10;3.10;;;;;;;11.08;100.00;99254.66;4918533;29;20393;-88
2021/10/20 10:46:37;;;;;;;6.88;3.47;;;;;;;11.06;100.00;99252.19;4918112;29;20043;-89
2021/10/20 10:49:53;;;;;;;9.27;3.08;;;;;;;11.30;98.06;99273.97;4917189;29;20127;-87
2021/10/20 10:52:27;;;;;;;11.48;1.73;;;;;;;11.49;96.84;99269.53;4903322;29;20050;-88
2021/10/20 10:54:58;;;;;;;1.83;1.23;;;;;;;11.58;96.18;99254.75;4902356;29;20501;-89
2021/10/20 10:57:36;;;;;;;17.63;3.33;;;;;;;11.63;96.43;99236.88;4938188;29;20078;-88
2021/10/20 11:00:21;;;;;;;13.25;2.22;;;;;;;11.69;96.01;99250.50;4906264;29;20043;-87
2021/10/20 11:03:00;;;;;;;5.38;0.95;;;;;;;11.51;96.10;99232.41;4909731;29;20336;-90
2021/10/20 11:05:49;;;;;;;7.30;1.80;;;;;;;11.77;96.94;99245.66;4907757;29;20449;-91
2021/10/20 11:08:15;;;;;;;8.15;1.63;;;;;;;11.75;96.11;99244.22;4902514;29;20047;-89
2021/10/20 11:10:42;;;;;;;7.65;1.83;;;;;;;11.94;96.43;99248.66;4900683;29;20055;-88
2021/10/20 11:13:09;;;;;;;2.88;1.05;;;;;;;11.94;96.90;99245.16;4890433;29;20072;-90
2021/10/20 11:15:36;;;;;;;4.55;1.67;;;;;;;11.90;96.50;99255.53;4886462;29;20036;-89
2021/10/20 11:18:02;;;;;;;13.90;1.48;;;;;;;11.86;96.25;99249.78;4903001;29;20032;-89
2021/10/20 11:20:34;;;;;;;11.48;1.48;;;;;;;11.76;96.72;99264.75;4902966;29;20067;-88
2021/10/20 11:23:05;;;;;;;2.78;1.58;;;;;;;11.77;95.75;99250.22;4887716;29;20053;-88
2021/10/20 11:25:32;;;;;;;8.82;2.10;;;;;;;11.91;96.38;99246.41;4902786;29;20036;-90
2021/10/20 11:27:59;;;;;;;11.35;2.05;;;;;;;12.21;96.30;99260.00;4886915;29;20612;-88
2021/10/20 11:30:26;;;;;;;12.02;1.30;;;;;;;12.35;95.93;99252.59;4890246;29;20039;-88
2021/10/20 11:32:52;;;;;;;5.13;1.30;;;;;;;12.15;95.51;99244.72;4902634;29;20032;-87